Time;durP1;ratioP1;P1;durP2;ratioP2;P2;SDS_P1;SDS_P2;PMS_P1;PMS_P2;Temp;Humidity;BMP_temperature;BMP_pressure;BME280_temperature;BME280_humidity;BME280_pressure;Samples;Min_cycle;Max_cycle;Signal;HPM_P1;HPM_P2
2023/01/29 04:00:40;;;;;;;3.90;3.50;;;2.80;74.30;;;;;;5986024;23;20510;-72
2023/01/29 04:03:17;;;;;;;3.53;3.07;;;2.90;74.40;;;;;;4939190;29;20459;-71
2023/01/29 04:05:47;;;;;;;3.80;3.43;;;2.90;74.10;;;;;;4938911;29;20515;-70
2023/01/29 04:08:18;;;;;;;4.10;3.70;;;3.00;73.80;;;;;;4938497;29;20488;-70
2023/01/29 04:10:47;;;;;;;4.00;3.60;;;3.00;73.80;;;;;;4938280;29;20518;-70
2023/01/29 04:13:17;;;;;;;3.50;3.20;;;3.00;73.60;;;;;;4938346;29;20495;-71
2023/01/29 04:15:49;;;;;;;3.53;2.80;;;3.00;73.60;;;;;;4938084;29;21008;-70
2023/01/29 04:18:16;;;;;;;3.90;3.50;;;3.10;73.20;;;;;;4937779;29;20441;-70
2023/01/29 04:20:43;;;;;;;3.27;2.90;;;3.10;73.40;;;;;;4937517;29;20547;-70
2023/01/29 04:23:21;;;;;;;3.27;2.77;;;3.10;73.40;;;;;;4937394;29;20448;-70
2023/01/29 04:25:54;;;;;;;3.13;2.83;;;3.20;73.30;;;;;;4937250;29;20519;-70
2023/01/29 04:28:27;;;;;;;3.63;3.33;;;3.20;73.40;;;;;;4937158;29;20532;-70
2023/01/29 04:31:00;;;;;;;4.40;3.10;;;3.20;73.60;;;;;;4937110;29;20475;-69
2023/01/29 04:33:34;;;;;;;3.93;3.50;;;3.20;73.20;;;;;;4937309;29;20462;-70
2023/01/29 04:36:22;;;;;;;3.10;2.80;;;3.20;73.40;;;;;;4937098;29;20510;-71
2023/01/29 04:39:00;;;;;;;3.70;3.20;;;3.20;73.40;;;;;;4937043;29;20942;-70
2023/01/29 04:41:32;;;;;;;3.50;3.20;;;3.20;73.10;;;;;;4936653;29;20480;-70
2023/01/29 04:44:05;;;;;;;3.40;3.10;;;3.20;73.00;;;;;;4937512;29;20771;-70
2023/01/29 04:46:46;;;;;;;4.43;4.03;;;3.20;73.30;;;;;;4936804;29;20499;-70
2023/01/29 04:49:22;;;;;;;4.50;3.60;;;3.10;73.40;;;;;;4936627;29;20445;-70
2023/01/29 04:51:53;;;;;;;3.73;3.13;;;3.00;73.60;;;;;;4936535;29;20480;-70
2023/01/29 04:54:31;;;;;;;3.37;3.07;;;3.10;73.30;;;;;;4936882;29;20514;-70
2023/01/29 04:57:05;;;;;;;3.70;3.37;;;2.90;73.40;;;;;;4936624;29;20432;-70
2023/01/29 04:59:35;;;;;;;4.43;4.03;;;2.90;73.60;;;;;;4936394;29;20968;-69
2023/01/29 05:02:06;;;;;;;3.17;2.83;;;3.00;73.70;;;;;;4937857;29;20535;-70
2023/01/29 05:04:34;;;;;;;3.90;3.43;;;3.00;73.70;;;;;;4936440;29;20441;-69
2023/01/29 05:07:04;;;;;;;3.30;3.00;;;3.10;73.90;;;;;;4935844;29;21024;-69
2023/01/29 05:09:32;;;;;;;3.90;3.37;;;3.10;73.80;;;;;;4936606;29;20452;-70
2023/01/29 05:12:01;;;;;;;3.20;2.90;;;3.10;73.60;;;;;;4936275;29;20468;-70
2023/01/29 05:14:30;;;;;;;4.03;3.63;;;3.10;73.30;;;;;;4936203;29;20448;-70
2023/01/29 05:16:59;;;;;;;3.50;3.13;;;3.10;73.30;;;;;;4936364;29;20447;-70
2023/01/29 05:19:27;;;;;;;3.70;3.30;;;3.10;73.30;;;;;;4936529;29;20452;-70
2023/01/29 05:21:55;;;;;;;3.73;3.33;;;3.10;73.60;;;;;;4936028;29;20472;-69
2023/01/29 05:24:23;;;;;;;4.40;3.73;;;3.10;74.00;;;;;;4936130;29;20547;-69
2023/01/29 05:29:36;;;;;;;3.90;3.50;;;3.00;73.80;;;;;;4936316;29;20412;-69
2023/01/29 05:32:03;;;;;;;3.93;3.53;;;2.70;73.90;;;;;;4936155;29;20468;-70
2023/01/29 05:34:32;;;;;;;4.13;3.73;;;2.60;74.90;;;;;;4935995;29;20459;-69
2023/01/29 05:36:58;;;;;;;3.93;3.53;;;2.80;74.40;;;;;;4935746;29;20460;-70
2023/01/29 05:39:25;;;;;;;3.60;3.20;;;2.80;74.30;;;;;;4936362;29;20503;-70
2023/01/29 05:41:51;;;;;;;4.80;3.60;;;2.90;74.50;;;;;;4935942;29;20523;-70
2023/01/29 05:44:19;;;;;;;3.90;3.60;;;2.90;74.20;;;;;;4936120;29;20506;-69
2023/01/29 05:46:45;;;;;;;3.80;3.40;;;3.00;74.00;;;;;;4936542;29;20459;-70
2023/01/29 05:49:12;;;;;;;3.53;3.10;;;3.00;74.10;;;;;;4936110;29;20456;-70
2023/01/29 05:51:40;;;;;;;3.80;3.43;;;3.00;73.70;;;;;;4935814;29;20519;-70
2023/01/29 05:54:07;;;;;;;3.80;3.30;;;3.00;73.80;;;;;;4935996;29;20499;-69
2023/01/29 05:56:34;;;;;;;3.97;3.27;;;3.10;73.70;;;;;;4935742;29;20539;-69
2023/01/29 05:59:00;;;;;;;4.27;3.87;;;3.00;73.60;;;;;;4936136;29;20460;-69
2023/01/29 06:01:27;;;;;;;4.30;3.90;;;3.00;73.50;;;;;;4935413;29;20607;-70
2023/01/29 06:03:53;;;;;;;4.00;3.60;;;3.10;73.40;;;;;;4935026;29;20817;-69
2023/01/29 06:06:20;;;;;;;3.40;3.10;;;3.00;72.60;;;;;;4935276;29;20849;-70
2023/01/29 06:08:48;;;;;;;4.27;3.87;;;2.50;74.00;;;;;;4934995;29;20456;-69
2023/01/29 06:11:17;;;;;;;4.73;4.27;;;2.20;75.40;;;;;;4934795;29;21046;-69
2023/01/29 06:13:44;;;;;;;4.50;3.93;;;2.30;75.70;;;;;;4934805;29;20827;-69
2023/01/29 06:16:12;;;;;;;4.40;3.80;;;2.50;75.40;;;;;;4935428;29;20491;-69
2023/01/29 06:18:40;;;;;;;4.63;3.83;;;2.60;75.10;;;;;;4938319;29;20514;-69
2023/01/29 06:21:09;;;;;;;3.80;3.50;;;2.70;75.20;;;;;;4937590;29;20889;-70
2023/01/29 06:23:36;;;;;;;4.30;3.90;;;2.80;75.10;;;;;;4937778;29;20824;-70
2023/01/29 06:26:07;;;;;;;4.07;3.67;;;2.90;74.70;;;;;;4938079;29;20460;-69
2023/01/29 06:28:33;;;;;;;4.13;3.73;;;2.90;74.80;;;;;;4939015;29;20448;-70
2023/01/29 06:31:01;;;;;;;3.60;3.30;;;3.00;74.70;;;;;;4937713;29;20479;-70
2023/01/29 06:33:27;;;;;;;4.50;3.60;;;3.00;74.40;;;;;;4937876;29;20883;-70
2023/01/29 06:35:58;;;;;;;3.87;3.57;;;3.10;74.00;;;;;;4937659;29;20482;-70
2023/01/29 06:38:25;;;;;;;4.47;4.07;;;3.10;73.50;;;;;;4938035;29;20514;-71
2023/01/29 06:40:53;;;;;;;3.70;3.40;;;3.10;73.70;;;;;;4938021;29;20472;-70
2023/01/29 06:43:22;;;;;;;3.87;3.40;;;3.10;73.60;;;;;;4938270;29;20456;-70
2023/01/29 06:45:50;;;;;;;4.20;3.80;;;3.10;73.80;;;;;;4937731;29;20480;-70
2023/01/29 06:48:17;;;;;;;4.30;3.30;;;3.20;73.50;;;;;;4937533;29;20447;-69
2023/01/29 06:50:44;;;;;;;4.20;3.80;;;3.20;73.20;;;;;;4937404;29;20476;-70
2023/01/29 06:53:11;;;;;;;3.83;3.50;;;3.20;73.40;;;;;;4937439;29;20448;-70
2023/01/29 06:55:38;;;;;;;4.30;3.90;;;3.20;73.50;;;;;;4937417;29;20491;-70
2023/01/29 06:58:06;;;;;;;4.03;3.63;;;3.20;73.30;;;;;;4937177;29;20941;-70
2023/01/29 07:00:35;;;;;;;4.20;3.80;;;3.20;73.10;;;;;;4915835;29;1020090;-71
2023/01/29 07:03:02;;;;;;;4.40;4.00;;;3.20;72.80;;;;;;4938343;29;20670;-69
2023/01/29 07:05:28;;;;;;;4.33;3.93;;;3.20;73.10;;;;;;4938402;29;20449;-70
2023/01/29 07:07:55;;;;;;;4.23;3.83;;;3.20;73.00;;;;;;4938377;29;20507;-70
2023/01/29 07:10:22;;;;;;;4.27;3.73;;;3.20;72.80;;;;;;4938193;29;20464;-70
2023/01/29 07:12:49;;;;;;;4.70;3.83;;;3.20;73.00;;;;;;4938202;29;20447;-70
2023/01/29 07:15:19;;;;;;;4.23;3.83;;;3.20;72.80;;;;;;4938255;29;20484;-70
2023/01/29 07:17:56;;;;;;;3.83;3.50;;;3.10;73.30;;;;;;4938198;29;20459;-71
2023/01/29 07:20:23;;;;;;;5.03;4.57;;;3.20;72.90;;;;;;4938174;29;20436;-70
2023/01/29 07:22:49;;;;;;;3.93;3.57;;;3.20;72.70;;;;;;4938876;29;20452;-69
2023/01/29 07:25:16;;;;;;;4.77;4.13;;;3.20;72.70;;;;;;4938068;29;20487;-70
2023/01/29 07:27:43;;;;;;;4.40;4.00;;;3.10;72.70;;;;;;4937654;29;20455;-70
2023/01/29 07:30:11;;;;;;;4.67;4.17;;;3.20;72.90;;;;;;4937733;29;20456;-70
2023/01/29 07:32:37;;;;;;;4.20;3.80;;;3.20;72.80;;;;;;4937961;29;20475;-70
2023/01/29 07:35:06;;;;;;;3.43;3.10;;;3.20;72.60;;;;;;4937911;29;20503;-70
2023/01/29 07:37:33;;;;;;;4.47;4.07;;;3.20;72.00;;;;;;4937849;29;20449;-70
2023/01/29 07:39:59;;;;;;;4.47;3.83;;;3.30;72.10;;;;;;4937690;29;20455;-71
2023/01/29 07:42:26;;;;;;;5.03;4.27;;;3.20;71.50;;;;;;4937822;29;20468;-71
2023/01/29 07:44:53;;;;;;;5.47;4.73;;;3.10;71.60;;;;;;4937929;29;20494;-71
2023/01/29 07:47:19;;;;;;;5.50;4.57;;;3.20;71.50;;;;;;4937767;29;20440;-70
2023/01/29 07:49:46;;;;;;;6.63;4.50;;;3.20;72.00;;;;;;4937785;29;20460;-72
2023/01/29 07:52:14;;;;;;;3.63;3.33;;;3.20;72.20;;;;;;4937585;29;20476;-71
2023/01/29 07:54:41;;;;;;;3.70;3.40;;;3.00;71.40;;;;;;4937534;29;20490;-70
2023/01/29 07:57:07;;;;;;;4.23;3.63;;;2.80;71.60;;;;;;4937470;29;20535;-69
2023/01/29 07:59:34;;;;;;;4.20;3.80;;;3.00;71.80;;;;;;4937516;29;20448;-71
2023/01/29 08:02:01;;;;;;;4.07;3.70;;;3.00;71.10;;;;;;4937030;29;20491;-71
2023/01/29 08:04:27;;;;;;;4.10;3.70;;;3.00;71.40;;;;;;4937424;29;20448;-71
2023/01/29 08:06:54;;;;;;;3.73;3.40;;;3.10;71.00;;;;;;4938900;29;20452;-71
2023/01/29 08:09:22;;;;;;;4.20;3.80;;;3.10;70.50;;;;;;4937856;29;20452;-70
2023/01/29 08:11:49;;;;;;;3.50;3.20;;;3.20;70.50;;;;;;4938762;29;20890;-70
2023/01/29 08:14:15;;;;;;;4.30;4.00;;;3.10;70.80;;;;;;4937902;29;20547;-71
2023/01/29 08:16:42;;;;;;;5.03;4.53;;;3.20;70.60;;;;;;4937037;29;20539;-70
2023/01/29 08:19:08;;;;;;;4.80;4.10;;;3.20;70.80;;;;;;4937003;29;20440;-70
2023/01/29 08:21:35;;;;;;;4.60;4.10;;;3.30;70.60;;;;;;4937277;29;20531;-70
2023/01/29 08:24:02;;;;;;;4.10;3.70;;;3.10;70.60;;;;;;4937249;29;20459;-70
2023/01/29 08:26:30;;;;;;;4.43;4.03;;;3.20;70.70;;;;;;4937374;29;20451;-70
2023/01/29 08:28:56;;;;;;;5.53;5.03;;;3.20;70.70;;;;;;4937542;29;20518;-69
2023/01/29 08:31:23;;;;;;;4.97;4.57;;;2.90;70.70;;;;;;4936768;29;20479;-71
2023/01/29 08:33:50;;;;;;;4.67;4.27;;;2.80;71.50;;;;;;4936661;29;20448;-69
2023/01/29 08:36:16;;;;;;;4.30;3.90;;;2.90;71.00;;;;;;4936516;29;20897;-69
2023/01/29 08:38:43;;;;;;;4.30;3.90;;;3.00;71.00;;;;;;4936269;29;20834;-69
2023/01/29 08:41:10;;;;;;;5.10;4.60;;;3.10;70.70;;;;;;4935626;29;20480;-69
2023/01/29 08:43:38;;;;;;;4.77;4.37;;;2.90;70.30;;;;;;4936494;29;20455;-69
2023/01/29 08:46:06;;;;;;;4.87;4.13;;;2.80;71.00;;;;;;4936201;29;20968;-70
2023/01/29 08:48:33;;;;;;;4.27;3.87;;;2.60;71.60;;;;;;4936423;29;20447;-70
2023/01/29 08:51:01;;;;;;;3.93;3.60;;;2.80;71.90;;;;;;4936561;29;20518;-69
2023/01/29 08:53:28;;;;;;;4.83;3.87;;;2.90;71.90;;;;;;4936116;29;20980;-71
2023/01/29 08:55:55;;;;;;;7.20;4.10;;;3.00;71.50;;;;;;4936335;29;20563;-69
2023/01/29 08:58:21;;;;;;;5.00;4.60;;;3.10;70.90;;;;;;4936323;29;20530;-70
2023/01/29 09:00:49;;;;;;;4.20;3.73;;;3.20;71.10;;;;;;4936072;29;20471;-70
2023/01/29 09:03:16;;;;;;;4.30;4.00;;;3.20;70.50;;;;;;4936298;29;20440;-71
2023/01/29 09:05:43;;;;;;;4.10;3.80;;;3.10;70.10;;;;;;4936275;29;20452;-70
2023/01/29 09:08:10;;;;;;;3.90;3.50;;;3.00;70.50;;;;;;4936722;29;20456;-71
2023/01/29 09:10:36;;;;;;;5.10;4.60;;;3.10;70.90;;;;;;4936572;29;20484;-71
2023/01/29 09:13:04;;;;;;;5.10;4.60;;;3.20;70.80;;;;;;4936495;29;20463;-71
2023/01/29 09:15:31;;;;;;;4.50;4.10;;;3.10;70.90;;;;;;4936282;29;20448;-70
2023/01/29 09:18:03;;;;;;;5.00;4.13;;;3.20;70.60;;;;;;4935975;29;20547;-71
2023/01/29 09:20:30;;;;;;;4.90;4.50;;;3.10;71.00;;;;;;4936093;29;20527;-71
2023/01/29 09:22:57;;;;;;;6.93;4.50;;;3.20;71.00;;;;;;4935998;29;20452;-71
2023/01/29 09:25:24;;;;;;;5.10;4.60;;;3.30;70.00;;;;;;4935803;29;20806;-70
2023/01/29 09:27:51;;;;;;;4.47;4.07;;;3.40;70.10;;;;;;4935970;29;20499;-70
2023/01/29 09:30:18;;;;;;;4.87;4.47;;;3.30;69.70;;;;;;4936084;29;20452;-70
2023/01/29 09:32:45;;;;;;;4.63;4.20;;;2.90;70.60;;;;;;4935973;29;20542;-71
2023/01/29 09:35:13;;;;;;;4.50;4.10;;;3.00;71.40;;;;;;4935958;29;20859;-70
2023/01/29 09:37:40;;;;;;;5.00;4.47;;;3.10;71.50;;;;;;4935859;29;20479;-70
2023/01/29 09:40:08;;;;;;;4.60;4.20;;;2.90;71.00;;;;;;4935919;29;20483;-70
2023/01/29 09:42:40;;;;;;;4.17;3.77;;;2.80;71.40;;;;;;4935970;29;20479;-71
2023/01/29 09:45:14;;;;;;;5.20;4.80;;;2.90;72.40;;;;;;4936019;29;20468;-70
2023/01/29 09:47:43;;;;;;;4.37;3.93;;;3.10;71.40;;;;;;4936117;29;20436;-71
2023/01/29 09:50:16;;;;;;;4.03;3.63;;;3.10;71.70;;;;;;4935898;29;20938;-71
2023/01/29 09:52:49;;;;;;;4.00;3.60;;;3.30;71.10;;;;;;4938712;29;20468;-70
2023/01/29 09:55:22;;;;;;;4.93;4.53;;;3.40;70.90;;;;;;4939819;29;20436;-70
2023/01/29 09:57:52;;;;;;;5.00;4.60;;;3.60;70.10;;;;;;4939701;29;20476;-71
2023/01/29 10:00:23;;;;;;;4.87;4.47;;;3.50;69.40;;;;;;4939512;29;20866;-71
2023/01/29 10:03:07;;;;;;;4.27;3.93;;;2.80;70.90;;;;;;4939204;29;20467;-71
2023/01/29 10:05:50;;;;;;;4.07;3.73;;;2.60;71.80;;;;;;4939435;29;20440;-70
2023/01/29 10:08:41;;;;;;;4.70;4.30;;;2.80;71.70;;;;;;4939381;29;20470;-71
2023/01/29 10:11:19;;;;;;;3.93;3.60;;;3.10;71.50;;;;;;4939324;29;20478;-70
2023/01/29 10:13:56;;;;;;;3.67;3.37;;;3.30;70.40;;;;;;4939320;29;20448;-71
2023/01/29 10:16:40;;;;;;;5.30;4.80;;;3.20;71.10;;;;;;4939906;29;20555;-70
2023/01/29 10:19:32;;;;;;;4.47;3.70;;;3.30;70.80;;;;;;4939444;29;20499;-70
2023/01/29 10:22:31;;;;;;;5.33;4.83;;;3.20;71.30;;;;;;4938778;29;20479;-70
2023/01/29 10:25:02;;;;;;;5.13;4.50;;;2.90;72.10;;;;;;4943152;29;20491;-70
2023/01/29 10:27:33;;;;;;;4.37;3.90;;;2.80;72.20;;;;;;4954818;29;20424;-71
2023/01/29 10:30:02;;;;;;;4.83;4.37;;;2.70;72.70;;;;;;4939723;29;20523;-71
2023/01/29 10:32:30;;;;;;;5.40;4.47;;;2.80;72.90;;;;;;4939349;29;20479;-72
2023/01/29 10:35:01;;;;;;;4.60;4.20;;;2.90;72.20;;;;;;4939233;29;20530;-71
2023/01/29 10:37:37;;;;;;;4.43;4.03;;;2.80;71.10;;;;;;4939235;29;20514;-71
2023/01/29 10:40:18;;;;;;;4.60;4.20;;;2.70;72.10;;;;;;4938929;29;20447;-71
2023/01/29 10:42:50;;;;;;;4.30;3.97;;;2.90;71.10;;;;;;4938861;29;20476;-71
2023/01/29 10:45:27;;;;;;;4.67;4.20;;;2.90;72.20;;;;;;4938456;29;20435;-71
2023/01/29 10:48:19;;;;;;;4.80;4.40;;;3.10;71.50;;;;;;4938836;29;20497;-71
2023/01/29 10:50:50;;;;;;;4.90;4.50;;;3.40;71.60;;;;;;4938629;29;20822;-71
2023/01/29 10:53:30;;;;;;;3.83;3.50;;;3.80;70.60;;;;;;4938615;29;20933;-71
2023/01/29 10:56:05;;;;;;;4.67;4.27;;;3.70;69.30;;;;;;4939049;29;20440;-71
2023/01/29 10:58:39;;;;;;;4.60;4.20;;;3.70;70.40;;;;;;4938569;29;20475;-71
2023/01/29 11:01:05;;;;;;;3.57;3.27;;;3.60;69.60;;;;;;4938396;29;20491;-71
2023/01/29 11:03:33;;;;;;;4.47;3.53;;;3.80;69.90;;;;;;4937465;29;20440;-71
2023/01/29 11:06:12;;;;;;;5.30;4.83;;;3.60;69.00;;;;;;4938306;29;20554;-71
2023/01/29 11:08:46;;;;;;;4.40;4.00;;;3.50;70.00;;;;;;4938372;29;20472;-71
2023/01/29 11:11:16;;;;;;;4.20;3.80;;;3.60;70.60;;;;;;4937897;29;20973;-70
2023/01/29 11:13:47;;;;;;;4.73;4.17;;;3.90;69.10;;;;;;4938302;29;20551;-71
2023/01/29 11:16:13;;;;;;;5.17;4.77;;;4.20;68.40;;;;;;4937785;29;20978;-71
2023/01/29 11:18:53;;;;;;;4.87;4.47;;;4.30;68.30;;;;;;4938118;29;20448;-71
2023/01/29 11:21:20;;;;;;;4.37;3.93;;;4.40;68.00;;;;;;4938041;29;20475;-70
2023/01/29 11:23:48;;;;;;;4.90;4.37;;;4.50;67.50;;;;;;4938047;29;20499;-70
2023/01/29 11:26:21;;;;;;;5.67;5.20;;;4.70;67.40;;;;;;4938024;29;20488;-71
2023/01/29 11:28:49;;;;;;;4.30;3.90;;;4.70;66.60;;;;;;4937979;29;20823;-71
2023/01/29 11:31:27;;;;;;;4.23;3.83;;;4.70;66.70;;;;;;4937910;29;20472;-70
2023/01/29 11:34:06;;;;;;;3.90;3.50;;;4.60;65.90;;;;;;4937797;29;20436;-70
2023/01/29 11:36:37;;;;;;;4.90;4.43;;;4.40;66.10;;;;;;4937746;29;20447;-70
2023/01/29 11:39:16;;;;;;;4.83;4.10;;;4.20;67.90;;;;;;4938015;29;20420;-71
2023/01/29 11:41:45;;;;;;;4.80;4.40;;;3.60;68.60;;;;;;4937596;29;21032;-71
2023/01/29 11:44:26;;;;;;;5.47;4.20;;;3.20;69.90;;;;;;4937828;29;20507;-70
2023/01/29 11:46:53;;;;;;;4.80;4.40;;;3.40;71.10;;;;;;4937670;29;20862;-71
2023/01/29 11:49:28;;;;;;;4.80;4.27;;;3.70;70.50;;;;;;4937497;29;20460;-71
2023/01/29 11:51:57;;;;;;;3.87;3.53;;;3.80;69.80;;;;;;4937696;29;20476;-72
2023/01/29 11:54:30;;;;;;;4.80;4.40;;;4.00;69.80;;;;;;4937625;29;20460;-71
2023/01/29 11:56:58;;;;;;;5.10;4.60;;;4.00;68.90;;;;;;4937942;29;20472;-71
2023/01/29 11:59:38;;;;;;;4.73;4.20;;;4.00;69.30;;;;;;4939318;29;20452;-71
2023/01/29 12:02:19;;;;;;;4.67;4.27;;;4.00;69.10;;;;;;4939481;29;20484;-71
2023/01/29 12:04:47;;;;;;;4.60;4.20;;;3.90;68.40;;;;;;4940735;29;20440;-72
2023/01/29 12:07:16;;;;;;;4.40;3.90;;;4.00;69.10;;;;;;4940395;29;20836;-72
2023/01/29 12:09:51;;;;;;;4.30;3.90;;;4.30;68.30;;;;;;4940279;29;20459;-72
2023/01/29 12:12:28;;;;;;;3.90;3.50;;;4.40;67.90;;;;;;4939953;29;20484;-71
2023/01/29 12:15:16;;;;;;;4.33;3.93;;;4.60;66.20;;;;;;4939690;29;20511;-72
2023/01/29 12:17:55;;;;;;;4.40;4.00;;;4.50;66.70;;;;;;4939241;29;21024;-71
2023/01/29 12:20:30;;;;;;;5.00;4.50;;;4.70;66.80;;;;;;4939122;29;20436;-72
2023/01/29 12:23:04;;;;;;;4.47;4.07;;;4.70;65.80;;;;;;4939125;29;20440;-71
2023/01/29 12:25:42;;;;;;;4.80;4.27;;;4.50;65.70;;;;;;4939667;29;20452;-71
2023/01/29 12:28:21;;;;;;;4.30;3.90;;;4.40;67.00;;;;;;4938761;29;20488;-71
2023/01/29 12:30:58;;;;;;;4.60;4.20;;;4.40;66.10;;;;;;4939848;29;20476;-71
2023/01/29 12:33:33;;;;;;;5.00;4.50;;;4.30;66.70;;;;;;4938930;29;20441;-71
2023/01/29 12:36:07;;;;;;;4.00;3.50;;;4.90;67.30;;;;;;4939160;29;20962;-72
2023/01/29 12:38:35;;;;;;;4.17;3.73;;;6.10;65.20;;;;;;4939274;29;20839;-72
2023/01/29 12:41:11;;;;;;;3.97;3.57;;;7.20;61.30;;;;;;4939808;29;20560;-72
2023/01/29 12:43:44;;;;;;;4.37;3.97;;;7.90;57.30;;;;;;4939584;29;20443;-72
2023/01/29 12:46:21;;;;;;;3.83;3.50;;;8.70;57.20;;;;;;4939479;29;20441;-73
2023/01/29 12:48:50;;;;;;;4.20;3.80;;;8.50;56.30;;;;;;4939834;29;20420;-71
2023/01/29 12:51:20;;;;;;;4.33;3.97;;;8.30;56.20;;;;;;4938911;29;20555;-72
2023/01/29 12:53:55;;;;;;;2.83;2.53;;;9.20;55.30;;;;;;4939759;29;20440;-72
2023/01/29 12:56:29;;;;;;;3.30;3.00;;;10.00;53.50;;;;;;4939957;29;20940;-73
2023/01/29 12:58:59;;;;;;;3.93;3.57;;;10.90;51.50;;;;;;4939780;29;20472;-74
2023/01/29 13:01:31;;;;;;;3.73;3.23;;;11.30;51.00;;;;;;4938935;29;20507;-72
2023/01/29 13:04:03;;;;;;;3.50;3.20;;;12.00;49.50;;;;;;4939227;29;20482;-72
2023/01/29 13:06:37;;;;;;;3.40;3.10;;;13.30;47.70;;;;;;4940508;29;20842;-72
2023/01/29 13:09:09;;;;;;;4.20;3.80;;;14.20;45.10;;;;;;4939244;29;20429;-74
2023/01/29 13:11:41;;;;;;;3.30;3.00;;;15.20;43.60;;;;;;4941293;29;20476;-73
2023/01/29 13:14:18;;;;;;;4.53;4.13;;;15.80;42.70;;;;;;4940959;29;20447;-72
2023/01/29 13:16:49;;;;;;;3.30;3.00;;;16.60;41.00;;;;;;4941260;29;20446;-72
2023/01/29 13:19:23;;;;;;;4.60;3.40;;;17.00;39.50;;;;;;4940279;29;20803;-73
2023/01/29 13:21:52;;;;;;;3.23;2.93;;;16.50;39.50;;;;;;4939996;29;20471;-73
2023/01/29 13:24:22;;;;;;;3.60;3.10;;;15.80;40.70;;;;;;4939669;29;20484;-74
2023/01/29 13:26:53;;;;;;;3.20;2.90;;;16.10;40.80;;;;;;4939883;29;20451;-72
2023/01/29 13:29:23;;;;;;;4.97;3.67;;;16.20;40.60;;;;;;4939650;29;21005;-72
2023/01/29 13:31:52;;;;;;;3.77;3.40;;;15.70;41.60;;;;;;4939151;29;20474;-73
2023/01/29 13:34:24;;;;;;;3.60;3.30;;;15.00;42.10;;;;;;4939225;29;20465;-72
2023/01/29 13:36:53;;;;;;;3.97;3.57;;;15.20;42.40;;;;;;4937707;29;20913;-73
2023/01/29 13:39:24;;;;;;;3.80;3.50;;;14.90;42.70;;;;;;4935604;29;21009;-72
2023/01/29 13:41:55;;;;;;;3.57;3.27;;;15.10;42.50;;;;;;4936049;29;20827;-72
2023/01/29 13:44:25;;;;;;;3.00;2.70;;;14.90;42.20;;;;;;4935982;29;20432;-71
2023/01/29 13:46:56;;;;;;;3.40;3.07;;;15.00;42.60;;;;;;4935675;29;20496;-72
2023/01/29 13:49:31;;;;;;;3.83;3.50;;;15.40;42.40;;;;;;4935660;29;20439;-72
2023/01/29 13:51:58;;;;;;;4.20;3.77;;;15.30;41.70;;;;;;4935513;29;20897;-72
2023/01/29 13:54:27;;;;;;;4.03;3.73;;;14.70;42.40;;;;;;4936068;29;20538;-72
2023/01/29 13:57:00;;;;;;;3.70;3.40;;;14.40;42.80;;;;;;4935901;29;20547;-72
2023/01/29 13:59:50;;;;;;;3.90;3.50;;;13.80;44.20;;;;;;4935830;29;20440;-72
2023/01/29 14:02:23;;;;;;;3.80;3.40;;;13.00;44.80;;;;;;4935330;29;21052;-72
2023/01/29 14:04:50;;;;;;;4.10;3.70;;;12.50;46.60;;;;;;4935595;29;20973;-72
2023/01/29 14:07:48;;;;;;;4.40;4.00;;;12.30;46.80;;;;;;4935818;29;20503;-72
2023/01/29 14:10:17;;;;;;;4.40;4.00;;;12.10;47.10;;;;;;4935806;29;20519;-72
2023/01/29 14:12:50;;;;;;;3.90;3.60;;;11.60;48.30;;;;;;4935710;29;20468;-72
2023/01/29 14:15:25;;;;;;;4.40;4.00;;;11.30;48.80;;;;;;4935821;29;20440;-72
2023/01/29 14:18:13;;;;;;;3.80;3.50;;;10.60;49.90;;;;;;4935314;29;21031;-71
2023/01/29 14:20:49;;;;;;;3.60;3.30;;;10.20;51.00;;;;;;4935342;29;20440;-72
2023/01/29 14:23:37;;;;;;;3.47;3.17;;;9.70;51.90;;;;;;4935600;29;20440;-72
2023/01/29 14:26:17;;;;;;;4.43;4.03;;;9.00;52.70;;;;;;4935579;29;20447;-71
2023/01/29 14:28:53;;;;;;;3.70;3.40;;;8.40;54.20;;;;;;4935586;29;20440;-72
2023/01/29 14:31:31;;;;;;;5.13;3.70;;;8.00;55.60;;;;;;4935455;29;20467;-72
2023/01/29 14:34:03;;;;;;;3.83;3.30;;;7.60;56.10;;;;;;4935888;29;20432;-71
2023/01/29 14:36:38;;;;;;;5.80;5.07;;;7.40;57.00;;;;;;4935511;29;20473;-72
2023/01/29 14:39:06;;;;;;;5.60;4.80;;;7.20;57.60;;;;;;4937081;29;20531;-72
2023/01/29 14:41:35;;;;;;;4.33;3.83;;;7.00;58.20;;;;;;4938749;29;20471;-71
2023/01/29 14:44:39;;;;;;;4.90;4.20;;;7.00;58.60;;;;;;4938485;29;21025;-71
2023/01/29 14:47:18;;;;;;;5.50;4.90;;;7.30;58.50;;;;;;4939919;29;20455;-72
2023/01/29 14:49:53;;;;;;;5.77;4.23;;;7.50;58.10;;;;;;4938795;29;20503;-72
2023/01/29 14:52:24;;;;;;;5.13;4.63;;;7.60;57.60;;;;;;4938687;29;20558;-72
2023/01/29 14:54:53;;;;;;;4.37;3.70;;;7.60;57.70;;;;;;4938527;29;20488;-71
2023/01/29 14:57:20;;;;;;;4.53;4.13;;;7.70;57.30;;;;;;4944263;29;20507;-71
2023/01/29 14:59:54;;;;;;;5.10;4.60;;;7.70;57.00;;;;;;4945716;29;20480;-72
2023/01/29 15:02:25;;;;;;;4.70;3.70;;;7.70;57.30;;;;;;4938685;29;20526;-72
2023/01/29 15:04:56;;;;;;;4.83;4.33;;;7.20;57.50;;;;;;4938669;29;20543;-72
2023/01/29 15:07:30;;;;;;;4.63;4.23;;;7.10;58.30;;;;;;4938828;29;20918;-72
2023/01/29 15:10:02;;;;;;;4.37;3.83;;;6.40;59.70;;;;;;4938469;29;20440;-71
2023/01/29 15:12:33;;;;;;;4.83;4.43;;;6.10;60.60;;;;;;4940710;29;20464;-72
2023/01/29 15:15:05;;;;;;;5.20;4.77;;;6.10;60.90;;;;;;4944940;29;20507;-70
2023/01/29 15:17:41;;;;;;;5.10;4.60;;;6.20;61.00;;;;;;4944006;29;20488;-71
2023/01/29 15:20:28;;;;;;;4.33;3.93;;;6.20;60.90;;;;;;4943877;29;20433;-71
2023/01/29 15:22:55;;;;;;;5.07;4.57;;;6.10;61.30;;;;;;4941837;29;20451;-72
2023/01/29 15:25:22;;;;;;;5.30;4.80;;;6.00;61.30;;;;;;4940058;29;20998;-72
2023/01/29 15:27:50;;;;;;;4.73;4.23;;;6.00;61.30;;;;;;4941702;29;20460;-72
2023/01/29 15:30:19;;;;;;;4.50;4.00;;;5.80;61.60;;;;;;4941290;29;20452;-72
2023/01/29 15:32:48;;;;;;;4.87;4.43;;;5.60;62.30;;;;;;4943176;29;20877;-72
2023/01/29 15:35:34;;;;;;;4.50;4.10;;;5.50;63.10;;;;;;4945676;29;20462;-72
2023/01/29 15:38:03;;;;;;;4.60;4.13;;;5.50;63.80;;;;;;4941317;29;20468;-72
2023/01/29 15:40:29;;;;;;;5.57;4.97;;;5.50;63.30;;;;;;4940606;29;20467;-72
2023/01/29 15:42:56;;;;;;;4.67;4.27;;;5.20;63.40;;;;;;4940025;29;20483;-71
2023/01/29 15:45:26;;;;;;;4.70;4.30;;;4.90;64.30;;;;;;4937954;29;20456;-72
2023/01/29 15:47:57;;;;;;;4.63;4.23;;;5.00;64.60;;;;;;4939733;29;20479;-71
2023/01/29 15:50:24;;;;;;;5.40;4.90;;;5.00;64.90;;;;;;4939127;29;20440;-71
2023/01/29 15:52:53;;;;;;;6.47;5.87;;;5.10;64.40;;;;;;4939261;29;20938;-71
2023/01/29 15:55:22;;;;;;;4.80;4.40;;;4.80;65.10;;;;;;4938851;29;20452;-72
2023/01/29 15:57:49;;;;;;;5.10;4.60;;;4.60;65.50;;;;;;4938021;29;20543;-70
2023/01/29 16:00:23;;;;;;;4.80;4.40;;;4.50;65.90;;;;;;4938515;29;20474;-71
2023/01/29 16:02:50;;;;;;;5.03;4.53;;;4.50;66.40;;;;;;4937932;29;20496;-71
2023/01/29 16:05:21;;;;;;;4.63;4.13;;;4.60;66.10;;;;;;4938736;29;20496;-72
2023/01/29 16:07:49;;;;;;;5.10;4.60;;;4.40;66.40;;;;;;4939678;29;20500;-70
2023/01/29 16:10:18;;;;;;;5.33;4.80;;;4.40;66.40;;;;;;4941157;29;20448;-72
2023/01/29 16:12:50;;;;;;;5.30;4.80;;;4.50;66.40;;;;;;4941301;29;20474;-71
2023/01/29 16:15:24;;;;;;;4.50;3.90;;;4.20;67.20;;;;;;4940057;29;20443;-73
2023/01/29 16:17:51;;;;;;;4.60;4.20;;;4.20;67.40;;;;;;4938043;29;20432;-72
2023/01/29 16:20:35;;;;;;;5.97;5.40;;;4.20;67.50;;;;;;4937655;29;20551;-72
2023/01/29 16:23:02;;;;;;;6.93;5.93;;;4.20;67.50;;;;;;4939049;29;20531;-72
2023/01/29 16:25:30;;;;;;;6.90;6.00;;;4.30;67.70;;;;;;4937417;29;20799;-71
2023/01/29 16:27:57;;;;;;;6.20;5.50;;;4.20;67.70;;;;;;4937751;29;20960;-71
2023/01/29 16:30:26;;;;;;;6.47;5.87;;;4.30;67.90;;;;;;4938471;29;20507;-72
2023/01/29 16:32:53;;;;;;;6.77;6.17;;;4.20;67.70;;;;;;4939040;29;20504;-73
2023/01/29 16:35:20;;;;;;;7.60;6.80;;;4.20;67.60;;;;;;4938752;29;20838;-73
2023/01/29 16:37:51;;;;;;;7.40;6.73;;;4.30;67.80;;;;;;4938439;29;20490;-73
2023/01/29 16:40:27;;;;;;;8.30;7.50;;;4.30;67.90;;;;;;4938605;29;20487;-73
2023/01/29 16:43:26;;;;;;;10.50;9.40;;;4.30;68.10;;;;;;4941293;29;20436;-72
2023/01/29 16:46:03;;;;;;;9.67;8.77;;;4.30;68.40;;;;;;4938816;29;20452;-72
2023/01/29 16:48:32;;;;;;;8.37;7.57;;;4.30;68.50;;;;;;4938082;29;20505;-72
2023/01/29 16:51:05;;;;;;;7.27;6.07;;;4.30;68.50;;;;;;4936912;29;20468;-72
2023/01/29 16:53:35;;;;;;;8.10;7.30;;;4.30;68.70;;;;;;4937342;29;20543;-71
2023/01/29 16:56:04;;;;;;;7.33;6.63;;;4.20;68.90;;;;;;4936685;29;20993;-71
2023/01/29 16:58:31;;;;;;;7.33;6.33;;;4.20;68.90;;;;;;4936714;29;20563;-71
2023/01/29 17:01:00;;;;;;;6.13;5.53;;;4.20;68.70;;;;;;4936017;29;20530;-71
2023/01/29 17:03:30;;;;;;;7.10;6.40;;;4.20;69.00;;;;;;4936875;29;20436;-71
2023/01/29 17:05:56;;;;;;;6.77;6.17;;;4.10;69.30;;;;;;4936771;29;20456;-71
2023/01/29 17:08:26;;;;;;;6.57;5.97;;;4.10;69.60;;;;;;4936877;29;20491;-72
2023/01/29 17:10:54;;;;;;;7.70;6.67;;;4.00;69.40;;;;;;4936929;29;20472;-71
2023/01/29 17:13:26;;;;;;;7.67;6.97;;;4.00;69.60;;;;;;4936729;29;20868;-71
2023/01/29 17:15:53;;;;;;;7.37;6.67;;;4.00;69.90;;;;;;4936837;29;20429;-72
2023/01/29 17:18:22;;;;;;;8.57;7.77;;;3.90;70.00;;;;;;4936684;29;20455;-71